Time;durP1;ratioP1;P1;durP2;ratioP2;P2;SDS_P1;SDS_P2;PMS_P1;PMS_P2;Temp;Humidity;BMP_temperature;BMP_pressure;BME280_temperature;BME280_humidity;BME280_pressure;Samples;Min_cycle;Max_cycle;Signal;HPM_P1;HPM_P2
2022/11/24 00:01:30;;;;;;;28.05;14.75;;;9.50;99.90;;;;;;5030854;28;20315;-76
2022/11/24 00:04:33;;;;;;;26.75;17.00;;;9.40;99.90;;;;;;5030863;28;20109;-76
2022/11/24 00:07:37;;;;;;;31.13;17.60;;;9.30;99.90;;;;;;5030629;28;20053;-75
2022/11/24 00:14:05;;;;;;;29.17;15.98;;;9.20;99.90;;;;;;5030704;28;20049;-75
2022/11/24 00:17:10;;;;;;;24.73;15.35;;;9.20;99.90;;;;;;5030586;28;20036;-75
2022/11/24 00:20:14;;;;;;;28.17;17.63;;;9.20;99.90;;;;;;5031411;28;20052;-75
2022/11/24 00:23:19;;;;;;;20.58;14.18;;;9.30;99.90;;;;;;5030788;28;20060;-76
2022/11/24 00:26:25;;;;;;;29.20;16.77;;;9.30;99.90;;;;;;5030542;28;20091;-76
2022/11/24 00:29:28;;;;;;;30.30;17.73;;;9.40;99.90;;;;;;5030183;28;20408;-76
2022/11/24 00:32:32;;;;;;;22.35;15.30;;;9.40;99.90;;;;;;5030606;28;20053;-75
2022/11/24 00:35:59;;;;;;;27.48;16.35;;;9.40;99.90;;;;;;5030185;28;20049;-75
2022/11/24 00:39:12;;;;;;;59.35;26.15;;;9.30;99.90;;;;;;5029895;28;20060;-76
2022/11/24 00:46:18;;;;;;;46.22;22.65;;;9.10;99.90;;;;;;5038585;28;20048;-75
2022/11/24 00:49:21;;;;;;;44.38;22.45;;;8.90;99.90;;;;;;5030028;28;20268;-75
2022/11/24 00:52:26;;;;;;;42.42;22.88;;;8.90;99.90;;;;;;5034332;28;20537;-76
2022/11/24 00:55:50;;;;;;;33.88;20.05;;;8.80;99.90;;;;;;5034532;28;20133;-75
2022/11/24 00:58:55;;;;;;;30.55;20.75;;;8.90;99.90;;;;;;5033281;28;20053;-75
2022/11/24 01:01:59;;;;;;;39.72;24.65;;;8.90;99.90;;;;;;5033989;28;20511;-75
2022/11/24 01:05:04;;;;;;;35.40;22.73;;;8.90;99.90;;;;;;5034006;28;20048;-76
2022/11/24 01:08:08;;;;;;;35.17;21.52;;;8.90;99.90;;;;;;5033752;28;20052;-75
2022/11/24 01:11:20;;;;;;;38.97;22.63;;;9.10;99.90;;;;;;5034046;28;20318;-73
2022/11/24 01:14:24;;;;;;;53.15;26.27;;;9.10;99.90;;;;;;5033466;28;20048;-73
2022/11/24 01:17:28;;;;;;;48.92;25.15;;;9.30;99.90;;;;;;5033490;28;20396;-73
2022/11/24 01:20:35;;;;;;;48.75;23.02;;;9.30;99.90;;;;;;5032640;28;20052;-76
2022/11/24 01:23:39;;;;;;;38.70;23.63;;;9.20;99.90;;;;;;5033520;28;20056;-75
2022/11/24 01:26:46;;;;;;;50.13;25.85;;;9.30;99.90;;;;;;5033860;28;20354;-76
2022/11/24 01:29:50;;;;;;;46.03;25.67;;;9.30;99.90;;;;;;5033480;28;20053;-76
2022/11/24 01:32:56;;;;;;;57.45;25.60;;;9.30;99.90;;;;;;5033376;28;20070;-74
2022/11/24 01:36:01;;;;;;;43.90;26.48;;;9.40;99.90;;;;;;5033620;28;20526;-75
2022/11/24 01:39:05;;;;;;;52.90;28.77;;;9.40;99.90;;;;;;5033852;28;20040;-75
2022/11/24 01:42:09;;;;;;;68.35;30.65;;;9.50;99.90;;;;;;5033228;28;20048;-75
2022/11/24 01:49:42;;;;;;;57.53;26.60;;;9.60;99.90;;;;;;5033134;28;20391;-75
2022/11/24 01:52:53;;;;;;;57.40;25.92;;;9.60;99.90;;;;;;5033008;28;20104;-75
2022/11/24 01:55:57;;;;;;;41.83;23.23;;;9.60;99.90;;;;;;5032943;28;20044;-75
2022/11/24 01:59:07;;;;;;;46.95;25.05;;;9.60;99.90;;;;;;5033152;28;20048;-75
2022/11/24 02:02:14;;;;;;;53.55;25.27;;;9.60;99.90;;;;;;5032629;28;20403;-75
2022/11/24 02:05:32;;;;;;;51.85;24.55;;;9.60;99.90;;;;;;5032653;28;20064;-75
2022/11/24 02:08:51;;;;;;;48.22;25.38;;;9.70;99.90;;;;;;5032394;28;20047;-75
2022/11/24 02:15:38;;;;;;;46.10;25.83;;;9.80;99.90;;;;;;5032601;28;20049;-75
2022/11/24 02:18:42;;;;;;;41.50;22.80;;;9.90;99.90;;;;;;5032865;28;20052;-75
2022/11/24 02:21:47;;;;;;;49.75;25.77;;;9.90;99.90;;;;;;5032669;28;20056;-75
2022/11/24 02:24:59;;;;;;;40.20;23.00;;;9.90;99.90;;;;;;5032364;28;20053;-75
2022/11/24 02:28:07;;;;;;;42.58;23.58;;;9.90;99.90;;;;;;5031974;28;20044;-75
2022/11/24 02:31:13;;;;;;;32.70;20.27;;;9.90;99.90;;;;;;5032163;28;20044;-75
2022/11/24 02:34:16;;;;;;;35.33;19.10;;;9.90;99.90;;;;;;5032140;28;20068;-75
2022/11/24 02:37:20;;;;;;;31.92;19.58;;;9.90;99.90;;;;;;5032283;28;20044;-75
2022/11/24 02:44:01;;;;;;;38.15;22.17;;;9.90;99.90;;;;;;5031673;28;20048;-75
2022/11/24 02:47:08;;;;;;;36.08;21.60;;;9.90;99.90;;;;;;5031935;28;20056;-75
2022/11/24 02:50:12;;;;;;;35.95;21.63;;;9.90;99.90;;;;;;5031617;28;20052;-75
2022/11/24 02:53:16;;;;;;;37.78;22.83;;;9.90;99.90;;;;;;5031409;28;20412;-76
2022/11/24 02:56:39;;;;;;;39.30;21.85;;;9.90;99.90;;;;;;5032247;28;20052;-74
2022/11/24 02:59:43;;;;;;;34.75;20.70;;;9.90;99.90;;;;;;5031975;28;20064;-74
2022/11/24 03:03:07;;;;;;;34.58;21.10;;;9.90;99.90;;;;;;5031815;28;20048;-75
2022/11/24 03:06:11;;;;;;;44.00;21.88;;;9.90;99.90;;;;;;5031342;28;20057;-75
2022/11/24 03:09:15;;;;;;;36.05;20.60;;;9.80;99.90;;;;;;5031716;28;20044;-75
2022/11/24 03:12:37;;;;;;;37.65;22.02;;;9.90;99.90;;;;;;5030706;28;20245;-75
2022/11/24 03:15:41;;;;;;;;;;;9.80;99.90;;;;;;5031313;28;20045;-75
2022/11/24 03:18:47;;;;;;;31.63;18.38;;;9.80;99.90;;;;;;5030973;28;19916;-75
2022/11/24 03:21:50;;;;;;;44.17;21.48;;;9.70;99.90;;;;;;5031570;28;20064;-75
2022/11/24 03:24:54;;;;;;;45.00;20.50;;;9.70;99.90;;;;;;5031080;28;20045;-75
2022/11/24 03:28:17;;;;;;;35.38;19.52;;;9.70;99.90;;;;;;5031551;28;20044;-75
2022/11/24 03:31:22;;;;;;;34.67;18.63;;;9.70;99.90;;;;;;5031065;28;20497;-75
2022/11/24 03:34:26;;;;;;;34.75;21.05;;;9.70;99.90;;;;;;5031152;28;20358;-75
2022/11/24 03:37:30;;;;;;;39.58;21.15;;;9.80;99.90;;;;;;5031357;28;20037;-75
2022/11/24 03:40:35;;;;;;;35.47;19.42;;;9.80;99.90;;;;;;5031101;28;20044;-76
2022/11/24 03:43:39;;;;;;;40.40;20.70;;;9.70;99.90;;;;;;5030809;28;20162;-75
2022/11/24 03:47:02;;;;;;;278.77;34.95;;;9.70;99.90;;;;;;5031045;28;20052;-75
2022/11/24 03:50:06;;;;;;;69.40;22.50;;;9.60;99.90;;;;;;5030846;28;20045;-75
2022/11/24 03:53:11;;;;;;;40.53;21.73;;;9.60;99.90;;;;;;5030900;28;20048;-75
2022/11/24 03:56:15;;;;;;;44.88;23.10;;;9.60;99.90;;;;;;5030852;28;20049;-75
2022/11/24 03:59:21;;;;;;;36.97;20.30;;;9.70;99.90;;;;;;5030876;28;20384;-75
2022/11/24 04:02:24;;;;;;;31.63;19.88;;;9.70;99.90;;;;;;5030852;28;20048;-76
2022/11/24 04:09:29;;;;;;;35.63;19.63;;;9.70;99.90;;;;;;5030331;28;20404;-75
2022/11/24 04:12:52;;;;;;;36.22;19.80;;;9.80;99.90;;;;;;5030485;28;20408;-74
2022/11/24 04:15:56;;;;;;;34.78;20.05;;;9.80;99.90;;;;;;5031017;28;20057;-75
2022/11/24 04:19:01;;;;;;;32.42;18.83;;;9.80;99.90;;;;;;5030826;28;20048;-75
2022/11/24 04:22:05;;;;;;;32.03;18.38;;;9.80;99.90;;;;;;5030607;28;20052;-75
2022/11/24 04:25:10;;;;;;;29.65;17.80;;;9.90;99.90;;;;;;5031232;28;20045;-75
2022/11/24 04:28:14;;;;;;;33.45;17.58;;;9.90;99.90;;;;;;5034647;28;20052;-75
2022/11/24 04:34:41;;;;;;;32.72;16.90;;;9.90;99.90;;;;;;5034340;28;20040;-73
2022/11/24 04:37:45;;;;;;;28.13;16.30;;;9.90;99.90;;;;;;5034399;28;20040;-75
2022/11/24 04:40:50;;;;;;;25.10;15.48;;;9.90;99.90;;;;;;5034288;28;20495;-76
2022/11/24 04:43:54;;;;;;;22.88;14.93;;;10.00;99.90;;;;;;5033418;28;20056;-73
2022/11/24 04:46:59;;;;;;;27.98;16.77;;;10.00;99.90;;;;;;5033848;28;20499;-76
2022/11/24 04:50:06;;;;;;;22.95;14.93;;;10.00;99.90;;;;;;5033226;28;20060;-74
2022/11/24 04:53:12;;;;;;;26.85;15.13;;;10.00;99.90;;;;;;5033987;28;20052;-74
2022/11/24 04:56:17;;;;;;;23.92;15.45;;;10.00;99.90;;;;;;5034439;28;20207;-74
2022/11/24 04:59:40;;;;;;;26.85;16.38;;;10.00;99.90;;;;;;5034247;28;20388;-74
2022/11/24 05:02:44;;;;;;;31.08;16.80;;;10.00;99.90;;;;;;5034298;28;20072;-74
2022/11/24 05:06:07;;;;;;;26.35;15.40;;;10.00;99.90;;;;;;5034126;28;20052;-74
2022/11/24 05:09:16;;;;;;;26.13;15.45;;;10.00;99.90;;;;;;5033812;28;20068;-75
2022/11/24 05:15:43;;;;;;;20.08;14.30;;;10.00;99.90;;;;;;5033868;28;20044;-74
2022/11/24 05:18:48;;;;;;;21.40;13.00;;;10.10;99.90;;;;;;5034034;28;20100;-75
2022/11/24 05:21:53;;;;;;;20.77;12.43;;;10.10;99.90;;;;;;5044059;28;20052;-74
2022/11/24 05:25:15;;;;;;;22.00;13.82;;;10.10;99.90;;;;;;5021146;28;20053;-75
2022/11/24 05:31:42;;;;;;;20.95;13.93;;;10.20;99.90;;;;;;5044087;28;20505;-74
2022/11/24 05:34:46;;;;;;;20.00;13.27;;;10.20;99.90;;;;;;5033281;28;20056;-74
2022/11/24 05:37:51;;;;;;;24.35;14.27;;;10.20;99.90;;;;;;5032948;28;20049;-74
2022/11/24 05:41:13;;;;;;;26.95;15.85;;;10.20;99.90;;;;;;5033086;28;20052;-74
2022/11/24 05:44:17;;;;;;;21.15;13.98;;;10.10;99.90;;;;;;5033492;28;20060;-74
2022/11/24 05:47:22;;;;;;;20.90;14.05;;;10.20;99.90;;;;;;5032889;28;20048;-74
2022/11/24 05:50:26;;;;;;;24.17;12.27;;;10.20;99.90;;;;;;5032655;28;20049;-74
2022/11/24 05:54:07;;;;;;;21.67;14.20;;;10.20;99.90;;;;;;5033117;28;20052;-76
2022/11/24 05:57:12;;;;;;;26.55;14.93;;;10.20;99.90;;;;;;5033484;28;20064;-74
2022/11/24 06:00:17;;;;;;;24.08;13.98;;;10.20;99.90;;;;;;5032192;28;20064;-74
2022/11/24 06:03:59;;;;;;;19.00;12.63;;;10.20;99.90;;;;;;5033890;28;20048;-74
2022/11/24 06:07:21;;;;;;;19.95;12.93;;;10.30;99.90;;;;;;5032889;28;20056;-75
2022/11/24 06:10:25;;;;;;;;;;;10.30;99.90;;;;;;5032541;28;20052;-74
2022/11/24 06:13:29;;;;;;;19.67;12.00;;;10.20;99.90;;;;;;5032598;28;19920;-74
2022/11/24 06:16:33;;;;;;;19.20;13.32;;;10.20;99.90;;;;;;5023669;28;20053;-74
2022/11/24 06:19:37;;;;;;;21.92;12.63;;;10.00;99.90;;;;;;5013479;28;20053;-74
2022/11/24 06:22:41;;;;;;;30.85;14.55;;;9.80;99.90;;;;;;5029998;28;20415;-74
2022/11/24 06:25:45;;;;;;;25.80;15.38;;;9.60;99.90;;;;;;5031472;28;20060;-74
2022/11/24 06:28:51;;;;;;;30.67;14.60;;;9.50;99.90;;;;;;5031828;28;20060;-74
2022/11/24 06:31:55;;;;;;;27.13;15.77;;;9.40;99.90;;;;;;5032119;28;20392;-75
2022/11/24 06:34:59;;;;;;;30.35;17.52;;;9.40;99.90;;;;;;5030846;28;20064;-75
2022/11/24 06:38:41;;;;;;;45.45;18.17;;;9.40;99.90;;;;;;5031885;28;20073;-74
2022/11/24 06:41:45;;;;;;;;;;;9.40;99.90;;;;;;5032118;28;20384;-74
2022/11/24 06:44:48;;;;;;;34.45;15.82;;;9.40;99.90;;;;;;5014952;28;20159;-74
2022/11/24 06:47:54;;;;;;;31.63;14.27;;;9.40;99.90;;;;;;5029766;28;20049;-77
2022/11/24 06:51:05;;;;;;;26.30;13.93;;;9.50;99.90;;;;;;5029970;28;20045;-75
2022/11/24 06:54:12;;;;;;;49.40;14.82;;;9.60;99.90;;;;;;5032016;28;20505;-76
2022/11/24 06:57:18;;;;;;;24.63;13.32;;;9.70;99.90;;;;;;5032016;28;20388;-74
2022/11/24 07:00:23;;;;;;;27.90;12.32;;;9.70;99.90;;;;;;5031497;28;20044;-76
2022/11/24 07:03:47;;;;;;;184.68;20.17;;;9.80;99.90;;;;;;5030794;28;20423;-74
2022/11/24 07:06:52;;;;;;;64.22;10.05;;;9.80;99.90;;;;;;5029165;28;20052;-74
2022/11/24 07:10:15;;;;;;;19.83;10.38;;;9.90;99.90;;;;;;5024928;28;20040;-76
2022/11/24 07:13:20;;;;;;;154.07;15.15;;;10.00;99.90;;;;;;5023029;28;20048;-76
2022/11/24 07:16:25;;;;;;;88.35;13.57;;;10.00;99.90;;;;;;5030163;28;20404;-75
2022/11/24 07:19:29;;;;;;;288.30;22.60;;;9.90;99.90;;;;;;5023666;28;20044;-76
2022/11/24 07:22:33;;;;;;;45.83;11.00;;;10.00;99.90;;;;;;5014227;28;20392;-77
2022/11/24 07:25:37;;;;;;;72.72;11.85;;;9.90;99.90;;;;;;5030232;28;20056;-76
2022/11/24 07:28:41;;;;;;;82.00;14.23;;;10.00;99.90;;;;;;5029816;28;20060;-77
2022/11/24 07:31:46;;;;;;;22.50;10.38;;;10.10;99.90;;;;;;5031471;28;20044;-76
2022/11/24 07:34:52;;;;;;;415.13;26.05;;;10.30;99.90;;;;;;5023864;28;20503;-77
2022/11/24 07:37:58;;;;;;;110.93;13.82;;;10.20;99.90;;;;;;5029823;28;20377;-74
2022/11/24 07:41:04;;;;;;;69.15;12.52;;;10.20;99.90;;;;;;5030397;28;20053;-75
2022/11/24 07:44:08;;;;;;;20.95;9.07;;;10.30;99.90;;;;;;5029052;28;20044;-75
2022/11/24 07:47:13;;;;;;;19.30;9.57;;;10.50;99.90;;;;;;5029992;28;20396;-75
2022/11/24 07:50:17;;;;;;;15.10;8.55;;;10.50;99.90;;;;;;5030168;28;20502;-75
2022/11/24 07:53:21;;;;;;;13.30;7.75;;;10.60;99.90;;;;;;5027995;28;20040;-75
2022/11/24 07:56:25;;;;;;;13.07;7.15;;;10.60;99.90;;;;;;5029843;28;20036;-76
2022/11/24 07:59:28;;;;;;;15.68;7.95;;;10.60;99.90;;;;;;5029962;28;20128;-76
2022/11/24 08:02:35;;;;;;;18.13;9.52;;;10.70;99.90;;;;;;5025869;28;20044;-76
2022/11/24 08:09:22;;;;;;;21.85;9.73;;;10.50;99.90;;;;;;5028530;28;20533;-76
2022/11/24 08:12:26;;;;;;;15.57;8.68;;;10.60;99.90;;;;;;5029258;28;20033;-77
2022/11/24 08:15:30;;;;;;;12.60;7.10;;;10.70;99.90;;;;;;5028650;28;20615;-77
2022/11/24 08:18:35;;;;;;;14.20;7.65;;;10.80;99.90;;;;;;5029577;28;20037;-77
2022/11/24 08:21:39;;;;;;;20.75;10.55;;;10.80;99.90;;;;;;5028857;28;20045;-76
2022/11/24 08:24:46;;;;;;;19.45;9.02;;;11.00;99.90;;;;;;5029428;28;20068;-77
2022/11/24 08:27:52;;;;;;;16.60;7.18;;;11.10;99.90;;;;;;5029703;28;20033;-77
2022/11/24 08:31:17;;;;;;;11.63;6.93;;;11.00;99.90;;;;;;5028641;28;20045;-77
2022/11/24 08:34:24;;;;;;;8.85;5.47;;;11.10;99.90;;;;;;5029635;28;20040;-76
2022/11/24 08:37:28;;;;;;;11.60;6.05;;;11.20;99.90;;;;;;5029424;28;20040;-77
2022/11/24 08:40:32;;;;;;;7.20;4.20;;;11.30;99.90;;;;;;5022782;28;20044;-75
2022/11/24 08:43:57;;;;;;;5.90;4.05;;;11.80;99.90;;;;;;5027880;28;20045;-77
2022/11/24 08:47:01;;;;;;;4.35;3.13;;;14.10;99.90;;;;;;5028801;28;20048;-77
2022/11/24 08:50:06;;;;;;;3.70;2.75;;;15.50;99.90;;;;;;5028389;28;20040;-77
2022/11/24 08:53:12;;;;;;;5.22;3.17;;;15.80;99.90;;;;;;5021412;28;20060;-75
2022/11/24 08:56:16;;;;;;;4.43;2.63;;;17.10;99.90;;;;;;5029467;28;20044;-76
2022/11/24 08:59:39;;;;;;;3.88;2.25;;;20.40;99.90;;;;;;5029123;28;20049;-76
2022/11/24 09:03:02;;;;;;;3.00;2.28;;;23.20;99.90;;;;;;5028780;28;20036;-76
2022/11/24 09:06:07;;;;;;;2.58;2.15;;;24.00;99.90;;;;;;5029664;28;20052;-76
2022/11/24 09:09:11;;;;;;;2.55;2.10;;;23.40;99.90;;;;;;5028710;28;20103;-75
2022/11/24 09:12:18;;;;;;;2.22;1.90;;;24.70;99.90;;;;;;5032516;28;20051;-77
2022/11/24 09:15:22;;;;;;;4.32;2.10;;;23.30;99.90;;;;;;5017806;28;20048;-78
2022/11/24 09:18:26;;;;;;;4.65;2.47;;;24.50;99.90;;;;;;5031470;28;20048;-77
2022/11/24 09:21:33;;;;;;;4.10;2.80;;;25.60;97.60;;;;;;5024431;28;20048;-77
2022/11/24 09:24:37;;;;;;;3.10;2.38;;;26.10;96.10;;;;;;5031915;28;20048;-77
2022/11/24 09:27:41;;;;;;;3.17;2.58;;;25.70;96.50;;;;;;5032013;28;20056;-78
2022/11/24 09:30:45;;;;;;;4.18;2.58;;;23.90;98.20;;;;;;5029153;28;20044;-77
2022/11/24 09:33:51;;;;;;;7.38;2.30;;;22.50;99.90;;;;;;5032444;28;20044;-78
2022/11/24 09:37:13;;;;;;;2.35;1.80;;;25.00;97.70;;;;;;5030771;28;20040;-78
2022/11/24 09:40:17;;;;;;;5.00;2.10;;;22.80;98.90;;;;;;5031572;28;20048;-78
2022/11/24 09:43:33;;;;;;;5.53;2.40;;;21.10;99.90;;;;;;5031746;28;20377;-77
2022/11/24 09:47:14;;;;;;;3.92;2.22;;;18.80;99.90;;;;;;5029133;28;20523;-77
2022/11/24 09:50:33;;;;;;;4.40;2.50;;;18.60;99.90;;;;;;5031511;28;20044;-76
2022/11/24 09:53:58;;;;;;;6.13;3.20;;;18.60;99.90;;;;;;5043028;28;20392;-78
2022/11/24 09:57:05;;;;;;;3.85;2.58;;;19.40;99.90;;;;;;5031869;28;20423;-79
2022/11/24 10:00:31;;;;;;;7.43;3.90;;;22.10;99.90;;;;;;5025078;28;20413;-78
2022/11/24 10:03:44;;;;;;;5.22;2.95;;;23.60;99.90;;;;;;5029452;28;20064;-78
2022/11/24 10:07:03;;;;;;;6.03;3.25;;;21.60;99.90;;;;;;5032357;28;20041;-78
2022/11/24 10:10:28;;;;;;;8.43;4.80;;;19.70;99.90;;;;;;5030508;28;20049;-77
2022/11/24 10:13:57;;;;;;;7.55;3.72;;;19.40;99.90;;;;;;5017123;28;20048;-77
2022/11/24 10:17:17;;;;;;;6.38;3.75;;;19.50;99.90;;;;;;5028826;28;20045;-77
2022/11/24 10:20:44;;;;;;;6.72;4.50;;;16.40;99.90;;;;;;5031252;28;20382;-77
2022/11/24 10:24:03;;;;;;;8.30;3.65;;;16.20;99.90;;;;;;5020773;28;20358;-77
2022/11/24 10:27:20;;;;;;;4.28;3.10;;;17.50;99.90;;;;;;5027977;28;20052;-77
2022/11/24 10:30:43;;;;;;;3.63;2.35;;;21.20;99.90;;;;;;5029970;28;20052;-78
2022/11/24 10:33:49;;;;;;;4.97;2.40;;;24.30;98.80;;;;;;5032976;28;20044;-78
2022/11/24 10:37:10;;;;;;;3.92;2.40;;;25.40;97.80;;;;;;5037487;28;20044;-77
2022/11/24 10:40:26;;;;;;;3.80;2.58;;;21.50;99.90;;;;;;5037701;28;20048;-77
2022/11/24 10:43:50;;;;;;;4.47;2.55;;;20.40;99.90;;;;;;5029078;28;20048;-78
2022/11/24 10:46:54;;;;;;;5.05;2.50;;;21.40;99.90;;;;;;5030478;28;20041;-74
2022/11/24 10:50:23;;;;;;;3.30;2.33;;;21.80;99.90;;;;;;5028760;28;20049;-77
2022/11/24 10:53:29;;;;;;;4.03;2.20;;;22.30;99.90;;;;;;5030113;28;20041;-74
2022/11/24 10:56:41;;;;;;;5.30;2.53;;;24.50;98.90;;;;;;5034042;28;20395;-78
2022/11/24 11:03:17;;;;;;;3.00;2.05;;;24.50;99.00;;;;;;5029802;28;20049;-78
2022/11/24 11:06:27;;;;;;;2.85;1.90;;;23.80;96.70;;;;;;5033315;28;20502;-75
2022/11/24 11:09:30;;;;;;;4.93;2.58;;;24.40;98.20;;;;;;5038950;28;20249;-78
2022/11/24 11:12:34;;;;;;;3.28;1.90;;;28.40;95.00;;;;;;5032823;28;20408;-76
2022/11/24 11:15:39;;;;;;;2.97;2.08;;;27.20;94.00;;;;;;5029449;28;20048;-76
2022/11/24 11:18:47;;;;;;;3.40;1.90;;;26.40;92.80;;;;;;5035873;28;20510;-77
2022/11/24 11:22:05;;;;;;;2.78;1.85;;;24.50;95.70;;;;;;5027775;28;20048;-77
2022/11/24 11:28:33;;;;;;;5.20;2.00;;;22.20;97.60;;;;;;5029770;28;20044;-77
2022/11/24 11:31:38;;;;;;;3.25;1.92;;;24.70;96.70;;;;;;5031113;28;20044;-77
2022/11/24 11:34:42;;;;;;;3.05;1.70;;;27.10;94.10;;;;;;5033312;28;20044;-74
2022/11/24 11:37:48;;;;;;;3.85;1.60;;;23.90;96.90;;;;;;5027427;28;20040;-77
2022/11/24 11:41:19;;;;;;;2.20;1.30;;;27.00;94.90;;;;;;5037486;28;20060;-74
2022/11/24 11:44:58;;;;;;;2.05;1.35;;;27.30;93.50;;;;;;5035100;28;20478;-78
2022/11/24 11:48:03;;;;;;;2.55;1.80;;;24.80;93.60;;;;;;4989466;28;20251;-77
2022/11/24 11:51:27;;;;;;;3.20;1.75;;;27.40;94.00;;;;;;5033875;28;20048;-77
2022/11/24 11:54:43;;;;;;;3.40;1.50;;;29.70;92.10;;;;;;5026597;28;20048;-75
2022/11/24 11:58:06;;;;;;;4.28;1.45;;;30.60;91.20;;;;;;5026504;28;20397;-74
2022/11/24 12:01:19;;;;;;;3.05;1.40;;;32.10;88.00;;;;;;5031606;28;20510;-74
2022/11/24 12:04:53;;;;;;;6.50;1.35;;;31.40;86.50;;;;;;5033329;28;20044;-75
2022/11/24 12:08:10;;;;;;;8.75;1.33;;;32.70;86.40;;;;;;5030638;28;20048;-75
2022/11/24 12:15:30;;;;;;;4.07;1.60;;;34.10;78.60;;;;;;5024824;28;20036;-74
2022/11/24 12:19:14;;;;;;;2.63;1.50;;;32.40;80.60;;;;;;5026239;28;20033;-74
2022/11/24 12:22:52;;;;;;;2.53;1.75;;;32.30;81.50;;;;;;5032462;28;20047;-76
2022/11/24 12:26:14;;;;;;;12.15;2.60;;;33.00;80.90;;;;;;5027008;28;20388;-75
2022/11/24 12:29:43;;;;;;;5.93;1.90;;;33.20;80.70;;;;;;5026981;28;20510;-74
2022/11/24 12:37:11;;;;;;;4.57;2.30;;;34.10;79.90;;;;;;5031102;28;20052;-74
2022/11/24 12:40:56;;;;;;;5.40;2.28;;;34.90;78.50;;;;;;5028828;28;20056;-75
2022/11/24 12:44:03;;;;;;;5.22;2.00;;;35.50;77.40;;;;;;5026935;28;20049;-77
2022/11/24 12:47:31;;;;;;;3.60;1.50;;;35.40;76.00;;;;;;5025773;28;20052;-77
2022/11/24 12:50:38;;;;;;;3.65;2.15;;;34.70;75.70;;;;;;5034311;28;20045;-77
2022/11/24 12:53:43;;;;;;;3.83;1.80;;;34.50;75.00;;;;;;5029475;28;20040;-77
2022/11/24 12:57:09;;;;;;;3.35;1.92;;;34.20;74.70;;;;;;5035314;28;20048;-77
2022/11/24 13:00:19;;;;;;;3.75;2.08;;;33.00;73.50;;;;;;5031050;28;20490;-77
2022/11/24 13:03:46;;;;;;;6.93;2.33;;;32.60;76.20;;;;;;5031879;28;20072;-77
2022/11/24 13:06:55;;;;;;;6.65;2.38;;;32.30;77.00;;;;;;5031740;28;20052;-77
2022/11/24 13:10:24;;;;;;;4.50;2.10;;;32.30;77.10;;;;;;5033110;28;20364;-77
2022/11/24 13:13:57;;;;;;;9.03;2.37;;;31.50;77.10;;;;;;5027597;28;20044;-76
2022/11/24 13:20:45;;;;;;;4.43;2.60;;;31.50;77.30;;;;;;5041103;28;20040;-76
2022/11/24 13:24:16;;;;;;;3.92;2.40;;;31.80;76.50;;;;;;5033454;28;20048;-77
2022/11/24 13:27:27;;;;;;;7.35;2.47;;;31.90;76.80;;;;;;5034102;28;20037;-76
2022/11/24 13:30:35;;;;;;;3.80;2.55;;;31.90;76.70;;;;;;5037256;28;20044;-77
2022/11/24 13:33:58;;;;;;;5.30;2.47;;;32.00;76.40;;;;;;5029371;28;20036;-76
2022/11/24 13:37:02;;;;;;;3.45;2.70;;;32.40;76.80;;;;;;5029198;28;20041;-77
2022/11/24 13:40:17;;;;;;;7.47;2.60;;;32.50;75.20;;;;;;5028190;28;20064;-76
2022/11/24 13:43:21;;;;;;;3.13;2.00;;;32.50;73.60;;;;;;5030092;28;20041;-76
2022/11/24 13:47:05;;;;;;;3.75;1.95;;;31.70;74.70;;;;;;5030384;28;20043;-76
2022/11/24 13:50:21;;;;;;;3.38;2.50;;;31.10;74.00;;;;;;5028667;28;20041;-76
2022/11/24 13:53:45;;;;;;;2.80;2.03;;;31.00;74.30;;;;;;5029734;28;20032;-77
2022/11/24 13:56:50;;;;;;;4.43;2.08;;;30.50;72.80;;;;;;5028315;28;20041;-76
2022/11/24 14:00:00;;;;;;;6.90;2.60;;;30.50;74.70;;;;;;5027033;28;20381;-76
2022/11/24 14:03:31;;;;;;;3.25;2.22;;;30.70;75.40;;;;;;5028020;28;20068;-76
2022/11/24 14:06:43;;;;;;;5.65;2.55;;;30.00;73.70;;;;;;5028118;28;20045;-76
2022/11/24 14:10:19;;;;;;;3.33;2.30;;;29.10;75.50;;;;;;5025418;28;20040;-76
2022/11/24 14:13:31;;;;;;;5.00;2.60;;;29.30;76.80;;;;;;5029719;28;20064;-76
2022/11/24 14:16:35;;;;;;;3.28;2.53;;;29.30;76.60;;;;;;5032582;28;20052;-76
2022/11/24 14:20:14;;;;;;;4.90;2.58;;;29.30;76.30;;;;;;5032553;28;20037;-76
2022/11/24 14:23:18;;;;;;;4.10;2.20;;;28.30;76.90;;;;;;5031593;28;20056;-76
2022/11/24 14:26:53;;;;;;;5.95;2.88;;;25.60;76.70;;;;;;5031865;28;20051;-75
2022/11/24 14:30:15;;;;;;;6.32;2.08;;;25.20;80.90;;;;;;5025648;28;20040;-76
2022/11/24 14:33:19;;;;;;;4.90;2.13;;;25.80;80.10;;;;;;5030213;28;20055;-75
2022/11/24 14:36:43;;;;;;;6.57;2.60;;;26.20;81.20;;;;;;5038653;28;20056;-75
2022/11/24 14:40:36;;;;;;;6.72;2.65;;;25.90;81.10;;;;;;5039686;28;20049;-76
2022/11/24 14:43:41;;;;;;;3.10;2.20;;;25.70;83.00;;;;;;5030750;28;20045;-76
2022/11/24 14:46:47;;;;;;;4.90;2.13;;;25.60;82.30;;;;;;5038603;28;20116;-76
2022/11/24 14:49:52;;;;;;;5.20;2.25;;;25.40;82.60;;;;;;5033768;28;20037;-75
2022/11/24 14:52:57;;;;;;;4.13;1.98;;;25.30;83.80;;;;;;5038789;28;20044;-75
2022/11/24 14:56:13;;;;;;;4.35;2.15;;;25.10;83.70;;;;;;5039377;28;20330;-75
2022/11/24 14:59:22;;;;;;;4.30;2.33;;;24.80;83.20;;;;;;5039193;28;20040;-75
2022/11/24 15:02:52;;;;;;;4.90;2.50;;;24.40;83.80;;;;;;5035145;28;20395;-75
2022/11/24 15:05:59;;;;;;;4.10;2.00;;;24.10;84.20;;;;;;5032686;28;20060;-75
2022/11/24 15:09:04;;;;;;;4.78;2.13;;;23.80;84.90;;;;;;5032837;28;20044;-75
2022/11/24 15:12:19;;;;;;;5.68;2.50;;;23.30;86.50;;;;;;5040464;28;20048;-75
2022/11/24 15:19:17;;;;;;;11.20;2.65;;;22.30;88.20;;;;;;5040413;28;20036;-76
2022/11/24 15:22:43;;;;;;;3.28;2.17;;;21.50;90.20;;;;;;5040237;28;20371;-76
2022/11/24 15:25:48;;;;;;;6.75;2.25;;;21.00;91.10;;;;;;5042048;28;20052;-76
2022/11/24 15:28:52;;;;;;;5.88;2.30;;;20.40;92.00;;;;;;5031061;28;20052;-77
2022/11/24 15:31:57;;;;;;;7.47;3.95;;;19.50;93.30;;;;;;5038298;28;20048;-77
2022/11/24 15:35:21;;;;;;;7.45;4.10;;;18.60;94.50;;;;;;5030345;28;20049;-76
2022/11/24 15:38:26;;;;;;;10.60;5.15;;;17.50;96.60;;;;;;5030798;28;20041;-77
2022/11/24 15:41:31;;;;;;;12.00;4.90;;;16.60;98.90;;;;;;5030714;28;20049;-76
2022/11/24 15:44:35;;;;;;;14.25;8.57;;;15.80;99.90;;;;;;5030942;28;20503;-76
2022/11/24 15:47:39;;;;;;;13.68;8.45;;;15.10;99.90;;;;;;5030799;28;20048;-75
2022/11/24 15:50:44;;;;;;;25.75;12.00;;;14.50;99.90;;;;;;5028739;28;20051;-75
2022/11/24 15:53:51;;;;;;;16.63;7.72;;;14.20;99.90;;;;;;5026453;28;20091;-78
2022/11/24 16:00:21;;;;;;;13.30;5.70;;;13.40;99.90;;;;;;5032557;28;20506;-76
2022/11/24 16:03:25;;;;;;;12.25;4.93;;;13.00;99.90;;;;;;5027809;28;20052;-75
2022/11/24 16:06:50;;;;;;;10.15;4.90;;;12.70;99.90;;;;;;5037970;28;20036;-77
2022/11/24 16:10:14;;;;;;;14.82;5.35;;;12.40;99.90;;;;;;5034737;28;20166;-76
2022/11/24 16:13:37;;;;;;;7.72;3.63;;;12.10;99.90;;;;;;5040701;28;20040;-75
2022/11/24 16:16:43;;;;;;;18.08;10.07;;;11.90;99.90;;;;;;5036546;28;20406;-75
2022/11/24 16:19:47;;;;;;;11.60;7.05;;;11.80;99.90;;;;;;5032519;28;20040;-75
2022/11/24 16:22:53;;;;;;;9.63;4.97;;;11.70;99.90;;;;;;5027299;28;20040;-74
2022/11/24 16:25:57;;;;;;;8.02;4.28;;;11.60;99.90;;;;;;5033301;28;20076;-75
2022/11/24 16:29:22;;;;;;;6.28;3.80;;;11.60;99.90;;;;;;5037985;28;20060;-76
2022/11/24 16:32:27;;;;;;;7.32;3.40;;;11.60;99.90;;;;;;5029099;28;20049;-75
2022/11/24 16:35:31;;;;;;;7.68;3.78;;;11.60;99.90;;;;;;5028198;28;20036;-75
2022/11/24 16:38:37;;;;;;;4.97;2.50;;;11.60;99.90;;;;;;5027907;28;20040;-74
2022/11/24 16:41:41;;;;;;;6.22;2.90;;;11.50;99.90;;;;;;5036221;28;20060;-75
2022/11/24 16:44:45;;;;;;;7.00;2.85;;;11.50;99.90;;;;;;5033417;28;20069;-75
2022/11/24 16:47:50;;;;;;;11.80;5.95;;;11.40;99.90;;;;;;5030339;28;20076;-75
2022/11/24 16:50:54;;;;;;;7.95;3.40;;;11.30;99.90;;;;;;5031418;28;20396;-74
2022/11/24 16:54:17;;;;;;;6.30;3.05;;;11.20;99.90;;;;;;5029620;28;20061;-74
2022/11/24 16:57:21;;;;;;;8.02;4.00;;;11.10;99.90;;;;;;5020970;28;20499;-75
2022/11/24 17:00:26;;;;;;;8.75;3.90;;;11.00;99.90;;;;;;5010153;28;20049;-74
2022/11/24 17:03:32;;;;;;;4.72;3.35;;;10.90;99.90;;;;;;5009972;28;20037;-75
2022/11/24 17:06:36;;;;;;;8.73;3.72;;;10.80;99.90;;;;;;5009367;28;20029;-74
2022/11/24 17:09:40;;;;;;;8.10;3.88;;;10.70;99.90;;;;;;5009899;28;20041;-75
2022/11/24 17:13:03;;;;;;;15.20;5.60;;;10.60;99.90;;;;;;5010717;28;20065;-75
2022/11/24 17:19:33;;;;;;;13.30;6.25;;;10.50;99.90;;;;;;5010106;28;20061;-76
2022/11/24 17:22:37;;;;;;;15.10;6.90;;;10.40;99.90;;;;;;5010463;28;20053;-76
2022/11/24 17:25:41;;;;;;;9.73;5.93;;;10.40;99.90;;;;;;5010660;28;20049;-76
2022/11/24 17:29:04;;;;;;;14.18;5.13;;;10.20;99.90;;;;;;5010332;28;20037;-76
2022/11/24 17:32:28;;;;;;;15.18;7.22;;;10.20;99.90;;;;;;5010992;28;20420;-75